Time;durP1;ratioP1;P1;durP2;ratioP2;P2;SDS_P1;SDS_P2;PMS_P1;PMS_P2;Temp;Humidity;BMP_temperature;BMP_pressure;BME280_temperature;BME280_humidity;BME280_pressure;Samples;Min_cycle;Max_cycle;Signal;HPM_P1;HPM_P2
2022/09/18 00:01:05;;;;;;;2.60;1.48;;;;;;;-142.37;100.00;59669.53;4957841;28;20031;-64
2022/09/18 00:03:31;;;;;;;1.50;1.05;;;;;;;-142.37;100.00;59669.53;4957752;28;20492;-63
2022/09/18 00:05:57;;;;;;;3.55;1.30;;;;;;;-142.37;100.00;59669.53;4958094;28;20037;-65
2022/09/18 00:08:22;;;;;;;2.30;1.15;;;;;;;-142.37;100.00;59669.53;4957909;28;20030;-63
2022/09/18 00:10:48;;;;;;;1.92;0.98;;;;;;;-142.37;100.00;59669.53;4975245;28;20027;-63
2022/09/18 00:13:14;;;;;;;1.40;1.02;;;;;;;-142.37;100.00;59669.53;4975164;28;20030;-64
2022/09/18 00:15:40;;;;;;;3.03;1.33;;;;;;;-142.37;100.00;59669.53;4957537;28;20035;-65
2022/09/18 00:18:06;;;;;;;3.65;1.50;;;;;;;-142.37;100.00;59669.53;4957715;28;20034;-64
2022/09/18 00:20:34;;;;;;;5.85;1.30;;;;;;;-142.37;100.00;59669.53;4957854;28;20551;-64
2022/09/18 00:23:00;;;;;;;5.38;1.67;;;;;;;-142.37;100.00;59669.53;4957673;28;20077;-64
2022/09/18 00:25:25;;;;;;;3.10;1.58;;;;;;;-142.37;100.00;59669.53;4957706;28;20034;-63
2022/09/18 00:27:51;;;;;;;2.28;1.50;;;;;;;-142.37;100.00;59669.53;4974986;28;20042;-64
2022/09/18 00:30:17;;;;;;;2.60;1.30;;;;;;;-142.37;100.00;59669.53;4974937;28;20085;-63
2022/09/18 00:32:42;;;;;;;2.85;1.40;;;;;;;-142.37;100.00;59669.53;4957288;28;20023;-65
2022/09/18 00:35:08;;;;;;;4.70;1.80;;;;;;;-142.37;100.00;59669.53;4974656;28;20051;-64
2022/09/18 00:37:34;;;;;;;2.78;1.38;;;;;;;-142.37;100.00;59669.53;4974842;28;20038;-64
2022/09/18 00:39:59;;;;;;;2.45;1.40;;;;;;;-142.37;100.00;59669.53;4957419;28;20030;-64
2022/09/18 00:42:25;;;;;;;2.75;1.50;;;;;;;-142.37;100.00;59669.53;4974634;28;20429;-65
2022/09/18 00:44:51;;;;;;;1.75;1.60;;;;;;;-142.37;100.00;59669.53;4957548;28;20023;-63
2022/09/18 00:47:23;;;;;;;2.63;1.65;;;;;;;-142.37;100.00;59669.53;4957174;28;20480;-64
2022/09/18 00:50:00;;;;;;;1.40;1.10;;;;;;;-142.37;100.00;59669.53;4973161;28;20487;-65
2022/09/18 00:52:30;;;;;;;1.65;1.00;;;;;;;-142.37;100.00;59669.53;4973327;28;20574;-64
2022/09/18 00:55:03;;;;;;;1.52;0.90;;;;;;;-142.37;100.00;59669.53;4973652;28;20097;-66
2022/09/18 00:57:32;;;;;;;1.85;1.27;;;;;;;-142.37;100.00;59669.53;4956313;28;20118;-64
2022/09/18 01:00:00;;;;;;;2.05;1.02;;;;;;;-142.37;100.00;59669.53;4974623;28;20054;-64
2022/09/18 01:02:26;;;;;;;1.63;1.00;;;;;;;-142.37;100.00;59669.53;4974430;28;20031;-64
2022/09/18 01:04:52;;;;;;;1.95;1.20;;;;;;;-142.37;100.00;59669.53;4957175;28;20035;-63
2022/09/18 01:07:17;;;;;;;2.08;1.35;;;;;;;-142.37;100.00;59669.53;4974024;28;20023;-64
2022/09/18 01:10:12;;;;;;;1.42;0.95;;;;;;;-142.37;100.00;59669.53;4972847;28;20057;-64
2022/09/18 01:13:04;;;;;;;1.37;1.00;;;;;;;-142.37;100.00;59669.53;4957184;28;20043;-64
2022/09/18 01:15:47;;;;;;;2.28;1.17;;;;;;;-142.37;100.00;59669.53;4974284;28;20307;-64
2022/09/18 01:18:39;;;;;;;2.05;1.30;;;;;;;-142.37;100.00;59669.53;4956682;28;20034;-64
2022/09/18 01:21:13;;;;;;;2.25;1.27;;;;;;;-142.37;100.00;59669.53;4973884;28;20380;-64
2022/09/18 01:23:39;;;;;;;1.00;0.90;;;;;;;-142.37;100.00;59669.53;4956631;28;20041;-63
2022/09/18 01:26:35;;;;;;;7.38;1.60;;;;;;;-142.37;100.00;59669.53;4972726;28;20039;-64
2022/09/18 01:29:24;;;;;;;3.00;1.02;;;;;;;-142.37;100.00;59669.53;4973830;28;20110;-65
2022/09/18 01:31:58;;;;;;;1.67;1.15;;;;;;;-142.37;100.00;59669.53;4974127;28;20065;-64
2022/09/18 01:34:42;;;;;;;1.37;1.00;;;;;;;-142.37;100.00;59669.53;4974231;28;20092;-64
2022/09/18 01:37:24;;;;;;;1.05;0.80;;;;;;;-142.37;100.00;59669.53;4971974;28;20372;-64
2022/09/18 01:39:54;;;;;;;2.10;1.20;;;;;;;-142.37;100.00;59669.53;4956260;28;20042;-65
2022/09/18 01:42:24;;;;;;;3.63;1.02;;;;;;;-142.37;100.00;59669.53;4973491;28;20440;-65
2022/09/18 01:44:53;;;;;;;1.83;1.17;;;;;;;-142.37;100.00;59669.53;4956361;28;20085;-64
2022/09/18 01:47:21;;;;;;;3.15;1.30;;;;;;;-142.37;100.00;59669.53;4956011;28;20031;-63
2022/09/18 01:49:52;;;;;;;1.85;1.30;;;;;;;-142.37;100.00;59669.53;4973519;28;20031;-64
2022/09/18 01:52:39;;;;;;;2.30;1.42;;;;;;;-142.37;100.00;59669.53;4973835;28;20038;-65
2022/09/18 01:55:11;;;;;;;4.00;1.30;;;;;;;-142.37;100.00;59669.53;4956357;28;20062;-63
2022/09/18 01:57:57;;;;;;;3.17;1.50;;;;;;;-142.37;100.00;59669.53;4974123;28;20443;-64
2022/09/18 02:00:24;;;;;;;2.25;1.45;;;;;;;-142.37;100.00;59669.53;4973940;28;20038;-64
2022/09/18 02:02:52;;;;;;;1.98;1.70;;;;;;;-142.37;100.00;59669.53;4973782;28;20062;-64
2022/09/18 02:05:26;;;;;;;2.17;1.73;;;;;;;-142.37;100.00;59669.53;4972061;28;20113;-64
2022/09/18 02:08:10;;;;;;;4.50;1.88;;;;;;;-142.37;100.00;59669.53;4958649;28;20042;-63
2022/09/18 02:10:52;;;;;;;1.90;1.65;;;;;;;-142.37;100.00;59669.53;4977330;28;20046;-64
2022/09/18 02:13:33;;;;;;;2.17;1.60;;;;;;;-142.37;100.00;59669.53;4977610;28;20117;-63
2022/09/18 02:16:04;;;;;;;3.42;1.60;;;;;;;-142.37;100.00;59669.53;4959883;28;20030;-65
2022/09/18 02:18:38;;;;;;;5.22;2.15;;;;;;;-142.37;100.00;59669.53;4977357;28;20105;-64
2022/09/18 02:21:09;;;;;;;5.70;1.40;;;;;;;-142.37;100.00;59669.53;4977238;28;20034;-65
2022/09/18 02:23:36;;;;;;;4.75;1.63;;;;;;;-142.37;100.00;59669.53;4959889;28;20030;-63
2022/09/18 02:26:06;;;;;;;4.55;1.75;;;;;;;-142.37;100.00;59669.53;4959959;28;20491;-63
2022/09/18 02:28:33;;;;;;;2.63;1.60;;;;;;;-142.37;100.00;59669.53;4977374;28;20105;-63
2022/09/18 02:31:00;;;;;;;3.22;1.60;;;;;;;-142.37;100.00;59669.53;4959399;28;20023;-64
2022/09/18 02:33:33;;;;;;;3.88;1.50;;;;;;;-142.37;100.00;59669.53;4959441;28;20031;-63
2022/09/18 02:36:23;;;;;;;2.38;1.27;;;;;;;-142.37;100.00;59669.53;4959843;28;20041;-63
2022/09/18 02:39:13;;;;;;;1.50;1.17;;;;;;;-142.37;100.00;59669.53;4976830;28;20559;-63
2022/09/18 02:41:57;;;;;;;3.35;1.30;;;;;;;-142.37;100.00;59669.53;4977051;28;20038;-65
2022/09/18 02:45:06;;;;;;;1.63;1.13;;;;;;;-142.37;100.00;59669.53;4975736;28;20043;-64
2022/09/18 02:48:06;;;;;;;2.53;1.27;;;;;;;-142.37;100.00;59669.53;4976923;28;20464;-64
2022/09/18 02:50:54;;;;;;;1.55;1.10;;;;;;;-142.37;100.00;59669.53;4976817;28;20031;-66
2022/09/18 02:53:53;;;;;;;4.22;1.17;;;;;;;-142.37;100.00;59669.53;4976832;28;20065;-63
2022/09/18 02:56:44;;;;;;;2.78;1.10;;;;;;;-142.37;100.00;59669.53;4976898;28;20031;-63
2022/09/18 02:59:26;;;;;;;2.17;1.10;;;;;;;-142.37;100.00;59669.53;4959209;28;20035;-63
2022/09/18 03:01:54;;;;;;;1.15;0.90;;;;;;;-142.37;100.00;59669.53;4976472;28;20508;-64
2022/09/18 03:04:23;;;;;;;3.05;0.88;;;;;;;-142.37;100.00;59669.53;4976942;28;20050;-64
2022/09/18 03:06:49;;;;;;;1.40;0.98;;;;;;;-142.37;100.00;59669.53;4976225;28;20023;-63
2022/09/18 03:09:15;;;;;;;3.15;1.05;;;;;;;-142.37;100.00;59669.53;4976345;28;20476;-65
2022/09/18 03:11:41;;;;;;;2.63;1.23;;;;;;;-142.37;100.00;59669.53;4975110;28;20088;-64
2022/09/18 03:14:07;;;;;;;1.55;0.98;;;;;;;-142.37;100.00;59669.53;4959079;28;20034;-65
2022/09/18 03:16:32;;;;;;;1.70;1.17;;;;;;;-142.37;100.00;59669.53;4958963;28;20105;-64
2022/09/18 03:18:58;;;;;;;1.02;0.90;;;;;;;-142.37;100.00;59669.53;4957663;28;20129;-65
2022/09/18 03:21:25;;;;;;;1.65;0.95;;;;;;;-142.37;100.00;59669.53;4976293;28;20057;-64
2022/09/18 03:23:51;;;;;;;2.72;1.40;;;;;;;-142.37;100.00;59669.53;4976470;28;20031;-63
2022/09/18 03:26:17;;;;;;;2.83;1.00;;;;;;;-142.37;100.00;59669.53;4959111;28;20113;-64
2022/09/18 03:28:43;;;;;;;2.67;0.90;;;;;;;-142.37;100.00;59669.53;4958694;28;20031;-65
2022/09/18 03:31:09;;;;;;;1.02;0.93;;;;;;;-142.37;100.00;59669.53;4976005;28;20046;-64
2022/09/18 03:33:36;;;;;;;2.58;0.77;;;;;;;-142.37;100.00;59669.53;4958659;28;20392;-64
2022/09/18 03:36:02;;;;;;;1.10;0.85;;;;;;;-142.37;100.00;59669.53;4976115;28;20116;-65
2022/09/18 03:38:27;;;;;;;1.35;1.23;;;;;;;-142.37;100.00;59669.53;4958850;28;20499;-65
2022/09/18 03:40:53;;;;;;;2.38;1.00;;;;;;;-142.37;100.00;59669.53;4958527;28;20546;-64
2022/09/18 03:43:19;;;;;;;1.58;0.90;;;;;;;-142.37;100.00;59669.53;4974456;28;20031;-64
2022/09/18 03:45:44;;;;;;;3.05;1.35;;;;;;;-142.37;100.00;59669.53;4974812;28;20023;-64
2022/09/18 03:48:10;;;;;;;1.75;1.10;;;;;;;-142.37;100.00;59669.53;4958268;28;20031;-63
2022/09/18 03:50:35;;;;;;;1.42;1.08;;;;;;;-142.37;100.00;59669.53;4975796;28;20042;-64
2022/09/18 03:53:01;;;;;;;1.52;0.95;;;;;;;-142.37;100.00;59669.53;4975373;28;20114;-63
2022/09/18 03:55:27;;;;;;;3.15;1.20;;;;;;;-142.37;100.00;59669.53;4975636;28;20022;-65
2022/09/18 03:57:52;;;;;;;2.95;0.93;;;;;;;-142.37;100.00;59669.53;4975619;28;20033;-64
2022/09/18 04:00:18;;;;;;;2.20;1.10;;;;;;;-142.37;100.00;59669.53;4975575;28;20106;-64
2022/09/18 04:02:44;;;;;;;1.40;1.10;;;;;;;-142.37;100.00;59669.53;4975395;28;20069;-63
2022/09/18 04:05:10;;;;;;;1.10;0.93;;;;;;;-142.37;100.00;59669.53;4973876;28;20355;-64
2022/09/18 04:07:36;;;;;;;2.65;1.25;;;;;;;-142.37;100.00;59669.53;4975329;28;20086;-65
2022/09/18 04:10:02;;;;;;;2.85;0.98;;;;;;;-142.37;100.00;59669.53;4975286;28;20037;-64
2022/09/18 04:12:28;;;;;;;2.60;1.27;;;;;;;-142.37;100.00;59669.53;4975436;28;20118;-65
2022/09/18 04:14:54;;;;;;;5.90;1.45;;;;;;;-142.37;100.00;59669.53;4975505;28;20470;-64
2022/09/18 04:17:20;;;;;;;2.17;1.25;;;;;;;-142.37;100.00;59669.53;4975015;28;20085;-63
2022/09/18 04:19:46;;;;;;;1.73;1.00;;;;;;;-142.37;100.00;59669.53;4957589;28;20097;-63
2022/09/18 04:22:12;;;;;;;1.63;0.95;;;;;;;-142.37;100.00;59669.53;4975181;28;20035;-64
2022/09/18 04:24:38;;;;;;;5.70;1.30;;;;;;;-142.37;100.00;59669.53;4957908;28;20103;-65
2022/09/18 04:27:05;;;;;;;1.52;0.82;;;;;;;-142.37;100.00;59669.53;4975050;28;20551;-63
2022/09/18 04:29:35;;;;;;;2.25;0.98;;;;;;;-142.37;100.00;59669.53;4974727;28;20034;-64
2022/09/18 04:32:01;;;;;;;7.10;1.35;;;;;;;-142.37;100.00;59669.53;4973483;28;20038;-64
2022/09/18 04:34:26;;;;;;;2.50;1.30;;;;;;;-142.37;100.00;59669.53;4957203;28;20080;-64
2022/09/18 04:36:52;;;;;;;2.70;1.30;;;;;;;-142.37;100.00;59669.53;4974824;28;20485;-64
2022/09/18 04:39:18;;;;;;;2.83;1.40;;;;;;;-142.37;100.00;59669.53;4957233;28;20067;-63
2022/09/18 04:41:46;;;;;;;2.75;1.60;;;;;;;-142.37;100.00;59669.53;4974677;28;20396;-64
2022/09/18 04:44:12;;;;;;;3.47;1.80;;;;;;;-142.37;100.00;59669.53;4974576;28;20081;-64
2022/09/18 04:46:37;;;;;;;3.10;1.55;;;;;;;-142.37;100.00;59669.53;4974428;28;20034;-64
2022/09/18 04:49:03;;;;;;;3.67;1.80;;;;;;;-142.37;100.00;59669.53;4956871;28;20464;-64
2022/09/18 04:51:29;;;;;;;4.90;1.92;;;;;;;-142.37;100.00;59669.53;4974700;28;20376;-64
2022/09/18 04:53:54;;;;;;;4.88;1.73;;;;;;;-142.37;100.00;59669.53;4957091;28;20617;-64
2022/09/18 04:56:20;;;;;;;4.03;2.00;;;;;;;-142.37;100.00;59669.53;4974462;28;20092;-64
2022/09/18 04:58:46;;;;;;;18.13;3.45;;;;;;;-142.37;100.00;59669.53;4974262;28;20565;-63
2022/09/18 05:01:11;;;;;;;8.18;2.00;;;;;;;-142.37;100.00;59669.53;4956653;28;20027;-64
2022/09/18 05:03:37;;;;;;;3.38;1.75;;;;;;;-142.37;100.00;59669.53;4974082;28;20081;-64
2022/09/18 05:06:03;;;;;;;4.10;1.60;;;;;;;-142.37;100.00;59669.53;4974455;28;20031;-64
2022/09/18 05:08:29;;;;;;;3.08;1.08;;;;;;;-142.37;100.00;59669.53;4956758;28;20030;-65
2022/09/18 05:10:56;;;;;;;7.40;1.98;;;;;;;-142.37;100.00;59669.53;4957060;28;20031;-65
2022/09/18 05:13:22;;;;;;;3.88;1.70;;;;;;;-142.37;100.00;59669.53;4974085;28;20392;-64
2022/09/18 05:15:50;;;;;;;2.58;1.65;;;;;;;-142.37;100.00;59669.53;4973902;28;20027;-64
2022/09/18 05:18:15;;;;;;;7.57;2.08;;;;;;;-142.37;100.00;59669.53;4973881;28;20114;-64
2022/09/18 05:20:41;;;;;;;3.53;1.98;;;;;;;-142.37;100.00;59669.53;4956715;28;20177;-63
2022/09/18 05:23:07;;;;;;;5.30;1.67;;;;;;;-142.37;100.00;59669.53;4973786;28;20026;-64
2022/09/18 05:25:32;;;;;;;2.65;1.23;;;;;;;-142.37;100.00;59669.53;4974115;28;20502;-65
2022/09/18 05:28:00;;;;;;;3.78;1.30;;;;;;;-142.37;100.00;59669.53;4956541;28;20033;-65
2022/09/18 05:30:26;;;;;;;2.90;1.65;;;;;;;-142.37;100.00;59669.53;4973659;28;20480;-65
2022/09/18 05:32:54;;;;;;;2.38;1.23;;;;;;;-142.37;100.00;59669.53;4973672;28;20035;-64
2022/09/18 05:35:21;;;;;;;4.75;1.67;;;;;;;-142.37;100.00;59669.53;4973185;28;20070;-64
2022/09/18 05:37:52;;;;;;;4.13;1.38;;;;;;;-142.37;100.00;59669.53;4973795;28;20041;-65
2022/09/18 05:40:25;;;;;;;3.88;1.38;;;;;;;-142.37;100.00;59669.53;4973616;28;20072;-65
2022/09/18 05:42:52;;;;;;;3.67;1.38;;;;;;;-142.37;100.00;59669.53;4955588;28;20070;-65
2022/09/18 05:45:18;;;;;;;2.00;1.25;;;;;;;-142.37;100.00;59669.53;4973303;28;20035;-64
2022/09/18 05:47:55;;;;;;;2.80;1.58;;;;;;;-142.37;100.00;59669.53;4956403;28;20031;-66
2022/09/18 05:50:22;;;;;;;2.13;1.15;;;;;;;-142.37;100.00;59669.53;4956287;28;20034;-64
2022/09/18 05:53:13;;;;;;;3.35;1.13;;;;;;;-142.37;100.00;59669.53;4973540;28;20065;-64
2022/09/18 05:55:38;;;;;;;2.80;1.40;;;;;;;-142.37;100.00;59669.53;4973047;28;20098;-65
2022/09/18 05:58:06;;;;;;;2.00;1.15;;;;;;;-142.37;100.00;59669.53;4956168;28;20103;-65
2022/09/18 06:00:34;;;;;;;1.13;0.85;;;;;;;-142.37;100.00;59669.53;4973558;28;20030;-64
2022/09/18 06:03:10;;;;;;;5.70;1.55;;;;;;;-142.37;100.00;59669.53;4955901;28;20034;-65
2022/09/18 06:05:36;;;;;;;2.80;1.50;;;;;;;-142.37;100.00;59669.53;4955935;28;20042;-65
2022/09/18 06:08:05;;;;;;;2.90;2.03;;;;;;;-142.37;100.00;59669.53;4973198;28;20482;-64
2022/09/18 06:10:32;;;;;;;4.25;1.67;;;;;;;-142.37;100.00;59669.53;4955968;28;20031;-65
2022/09/18 06:13:06;;;;;;;2.20;1.40;;;;;;;-142.37;100.00;59669.53;4956097;28;20399;-65
2022/09/18 06:15:32;;;;;;;5.32;1.85;;;;;;;-142.37;100.00;59669.53;4973310;28;20026;-65
2022/09/18 06:17:59;;;;;;;1.85;1.58;;;;;;;-142.37;100.00;59669.53;4955919;28;20495;-65
2022/09/18 06:20:25;;;;;;;3.15;1.75;;;;;;;-142.37;100.00;59669.53;4973299;28;20046;-67
2022/09/18 06:22:51;;;;;;;2.03;1.80;;;;;;;-142.37;100.00;59669.53;4956068;28;20094;-65
2022/09/18 06:25:20;;;;;;;4.22;1.80;;;;;;;-142.37;100.00;59669.53;4955767;28;20035;-65
2022/09/18 06:27:49;;;;;;;4.13;1.80;;;;;;;-142.37;100.00;59669.53;4973319;28;20118;-66
2022/09/18 06:30:15;;;;;;;3.83;1.65;;;;;;;-142.37;100.00;59669.53;4955827;28;20035;-65
2022/09/18 06:32:41;;;;;;;2.35;1.42;;;;;;;-142.37;100.00;59669.53;4955844;28;20027;-65
2022/09/18 06:35:08;;;;;;;1.50;1.20;;;;;;;-142.37;100.00;59669.53;4972997;28;20109;-66
2022/09/18 06:37:34;;;;;;;5.20;1.77;;;;;;;-142.37;100.00;59669.53;4972734;28;20121;-66
2022/09/18 06:40:00;;;;;;;2.35;1.40;;;;;;;-142.37;100.00;59669.53;4973143;28;20041;-66
2022/09/18 06:42:25;;;;;;;1.85;1.30;;;;;;;-142.37;100.00;59669.53;4972992;28;20035;-64
2022/09/18 06:44:51;;;;;;;2.85;1.48;;;;;;;-142.37;100.00;59669.53;4972940;28;20507;-64
2022/09/18 06:47:17;;;;;;;2.83;1.30;;;;;;;-142.37;100.00;59669.53;4955366;28;20042;-65
2022/09/18 06:49:42;;;;;;;3.08;1.50;;;;;;;-142.37;100.00;59669.53;4971535;28;20026;-65
2022/09/18 06:52:08;;;;;;;3.42;1.50;;;;;;;-142.37;100.00;59669.53;4972893;28;20057;-66
2022/09/18 06:54:33;;;;;;;2.63;1.40;;;;;;;-142.37;100.00;59669.53;4976369;28;20050;-66
2022/09/18 06:56:59;;;;;;;4.35;1.60;;;;;;;-142.37;100.00;59669.53;4958808;28;20121;-66
2022/09/18 06:59:24;;;;;;;2.13;1.40;;;;;;;-142.37;100.00;59669.53;4976746;28;20085;-65
2022/09/18 07:01:50;;;;;;;2.55;1.48;;;;;;;-142.37;100.00;59669.53;4959264;28;20458;-66
2022/09/18 07:04:16;;;;;;;2.50;1.60;;;;;;;-142.37;100.00;59669.53;4976437;28;20035;-65
2022/09/18 07:06:45;;;;;;;1.98;1.50;;;;;;;-142.37;100.00;59669.53;4958963;28;20026;-66
2022/09/18 07:09:11;;;;;;;2.95;1.40;;;;;;;-142.37;100.00;59669.53;4976359;28;20468;-66
2022/09/18 07:11:38;;;;;;;1.90;1.30;;;;;;;-142.37;100.00;59669.53;4958864;28;20023;-66
2022/09/18 07:14:07;;;;;;;1.73;1.38;;;;;;;-142.37;100.00;59669.53;4976208;28;20042;-67
2022/09/18 07:16:33;;;;;;;2.28;1.27;;;;;;;-142.37;100.00;59669.53;4974819;28;20066;-66
2022/09/18 07:18:59;;;;;;;2.42;1.33;;;;;;;-142.37;100.00;59669.53;4958343;28;20407;-68
2022/09/18 07:21:25;;;;;;;2.08;1.50;;;;;;;-142.37;100.00;59669.53;4975809;28;20038;-67
2022/09/18 07:23:50;;;;;;;2.33;1.20;;;;;;;-142.37;100.00;59669.53;4975960;28;20109;-66
2022/09/18 07:26:18;;;;;;;2.30;1.65;;;;;;;-142.37;100.00;59669.53;4958321;28;20133;-66
2022/09/18 07:28:44;;;;;;;2.63;1.50;;;;;;;-142.37;100.00;59669.53;4958590;28;20054;-67
2022/09/18 07:31:10;;;;;;;1.40;1.20;;;;;;;-142.37;100.00;59669.53;4958397;28;20035;-66
2022/09/18 07:33:36;;;;;;;1.48;1.25;;;;;;;-142.37;100.00;59669.53;4975910;28;20043;-67
2022/09/18 07:36:04;;;;;;;1.80;1.15;;;;;;;-142.37;100.00;59669.53;4958377;28;20046;-67
2022/09/18 07:38:30;;;;;;;1.58;1.30;;;;;;;-142.37;100.00;59669.53;4975575;28;20113;-67
2022/09/18 07:40:56;;;;;;;1.23;1.08;;;;;;;-142.37;100.00;59669.53;4975324;28;20458;-76
2022/09/18 07:43:21;;;;;;;1.55;1.33;;;;;;;-142.37;100.00;59669.53;4958052;28;20065;-68
2022/09/18 07:45:47;;;;;;;3.03;1.70;;;;;;;-142.37;100.00;59669.53;4958205;28;20026;-70
2022/09/18 07:48:13;;;;;;;4.72;1.10;;;;;;;-142.37;100.00;59669.53;4975462;28;20027;-67
2022/09/18 07:50:39;;;;;;;2.90;1.50;;;;;;;-142.37;100.00;59669.53;4975583;28;20399;-68
2022/09/18 07:53:06;;;;;;;2.92;1.02;;;;;;;-142.37;100.00;59669.53;4957708;28;20134;-69
2022/09/18 07:55:34;;;;;;;2.30;1.15;;;;;;;-142.37;100.00;59669.53;4975558;28;20031;-69
2022/09/18 07:58:03;;;;;;;1.70;1.48;;;;;;;-142.37;100.00;59669.53;4975244;28;20042;-70
2022/09/18 08:00:32;;;;;;;2.50;1.23;;;;;;;-142.37;100.00;59669.53;4974922;28;20037;-69
2022/09/18 08:03:05;;;;;;;1.38;1.20;;;;;;;-142.37;100.00;59669.53;4975270;28;20503;-70
2022/09/18 08:05:31;;;;;;;1.52;1.33;;;;;;;-142.37;100.00;59669.53;4974374;28;20094;-70
2022/09/18 08:08:12;;;;;;;1.80;1.20;;;;;;;-142.37;100.00;59669.53;4975256;28;20480;-69
2022/09/18 08:10:39;;;;;;;1.95;1.30;;;;;;;-142.37;100.00;59669.53;4957567;28;20034;-68
2022/09/18 08:13:06;;;;;;;1.73;1.23;;;;;;;-142.37;100.00;59669.53;4974613;28;20531;-68
2022/09/18 08:15:33;;;;;;;2.22;1.10;;;;;;;-142.37;100.00;59669.53;4975105;28;20081;-68
2022/09/18 08:17:59;;;;;;;1.60;1.15;;;;;;;-142.37;100.00;59669.53;4957613;28;20451;-68
2022/09/18 08:20:25;;;;;;;0.90;0.80;;;;;;;-142.37;100.00;59669.53;4975096;28;20034;-67
2022/09/18 08:22:51;;;;;;;0.88;0.60;;;;;;;-142.37;100.00;59669.53;4974215;28;20406;-68
2022/09/18 08:25:17;;;;;;;3.08;1.42;;;;;;;-142.37;100.00;59669.53;4974561;28;20091;-68
2022/09/18 08:27:43;;;;;;;1.23;1.00;;;;;;;-142.37;100.00;59669.53;4957232;28;20051;-68
2022/09/18 08:30:12;;;;;;;2.13;0.95;;;;;;;-142.37;100.00;59669.53;4974733;28;20065;-69
2022/09/18 08:32:38;;;;;;;3.95;1.02;;;;;;;-142.37;100.00;59669.53;4957300;28;20023;-69
2022/09/18 08:35:04;;;;;;;0.80;0.80;;;;;;;-142.37;100.00;59669.53;4973901;28;20051;-69
2022/09/18 08:37:31;;;;;;;1.25;0.95;;;;;;;-142.37;100.00;59669.53;4956712;28;20093;-71
2022/09/18 08:39:57;;;;;;;0.95;0.88;;;;;;;-142.37;100.00;59669.53;4974989;28;20093;-71
2022/09/18 08:42:36;;;;;;;3.55;1.08;;;;;;;-142.37;100.00;59669.53;4956823;28;20472;-70
2022/09/18 08:45:50;;;;;;;0.80;0.68;;;;;;;-142.37;100.00;59669.53;4972914;28;20035;-70
2022/09/18 08:48:24;;;;;;;1.08;0.90;;;;;;;-142.37;100.00;59669.53;4974234;28;20035;-71
2022/09/18 08:50:57;;;;;;;3.20;1.23;;;;;;;-142.37;100.00;59669.53;4974187;28;20505;-72
2022/09/18 08:53:32;;;;;;;0.80;0.70;;;;;;;-142.37;100.00;59669.53;4956598;28;20045;-72
2022/09/18 08:56:00;;;;;;;0.68;0.68;;;;;;;-142.37;100.00;59669.53;4956498;28;20356;-71
2022/09/18 08:58:36;;;;;;;2.17;1.10;;;;;;;-142.37;100.00;59669.53;4973705;28;20046;-72
2022/09/18 09:01:08;;;;;;;3.90;1.10;;;;;;;-142.37;100.00;59669.53;4973815;28;20037;-71
2022/09/18 09:04:31;;;;;;;0.85;0.80;;;;;;;-142.37;100.00;59669.53;4956382;28;20030;-70
2022/09/18 09:07:09;;;;;;;1.55;0.80;;;;;;;-142.37;100.00;59669.53;4897798;29;20051;-69
2022/09/18 09:10:03;;;;;;;2.80;0.85;;;;;;;-142.37;100.00;59669.53;4898038;29;20084;-71
2022/09/18 09:12:45;;;;;;;3.27;1.33;;;;;;;-142.37;100.00;59669.53;4958190;28;20404;-72
2022/09/18 09:15:29;;;;;;;2.08;1.38;;;;;;;-142.37;100.00;59669.53;4973283;28;20118;-72
2022/09/18 09:18:21;;;;;;;1.42;0.85;;;;;;;-142.37;100.00;59669.53;4955579;28;20065;-71
2022/09/18 09:20:55;;;;;;;1.90;1.10;;;;;;;-142.37;100.00;59669.53;4956348;28;20074;-69
2022/09/18 09:23:57;;;;;;;2.05;1.13;;;;;;;-142.37;100.00;59669.53;4955826;28;20070;-69
2022/09/18 09:26:25;;;;;;;0.98;0.80;;;;;;;-142.37;100.00;59669.53;4972188;28;20093;-68
2022/09/18 09:29:05;;;;;;;1.83;0.70;;;;;;;-142.37;100.00;59669.53;4956233;28;20053;-68
2022/09/18 09:31:42;;;;;;;0.77;0.57;;;;;;;-142.37;100.00;59669.53;4955996;28;20034;-68
2022/09/18 09:34:20;;;;;;;3.08;1.00;;;;;;;-142.37;100.00;59669.53;4973405;28;20110;-69
2022/09/18 09:36:55;;;;;;;1.65;1.30;;;;;;;-142.37;100.00;59669.53;4956074;28;20087;-68
2022/09/18 09:39:47;;;;;;;0.88;0.77;;;;;;;-142.37;100.00;59669.53;4973227;28;20085;-68
2022/09/18 09:42:51;;;;;;;1.40;0.73;;;;;;;-142.37;100.00;59669.53;4971142;28;20062;-69
2022/09/18 09:45:32;;;;;;;1.08;0.95;;;;;;;-142.37;100.00;59669.53;4971788;28;20385;-69
2022/09/18 09:48:37;;;;;;;3.25;0.85;;;;;;;-142.37;100.00;59669.53;4955557;28;20058;-70
2022/09/18 09:51:08;;;;;;;0.60;0.50;;;;;;;-142.37;100.00;59669.53;4942837;28;20403;-69
2022/09/18 09:53:35;;;;;;;1.02;0.77;;;;;;;-142.37;100.00;59669.53;4973003;28;20046;-70
2022/09/18 09:56:27;;;;;;;2.90;0.50;;;;;;;-142.37;100.00;59669.53;4972975;28;20084;-68
2022/09/18 09:59:14;;;;;;;2.00;0.70;;;;;;;-142.37;100.00;59669.53;4955520;28;20101;-69
2022/09/18 10:01:46;;;;;;;1.80;1.17;;;;;;;-142.37;100.00;59669.53;4972930;28;20570;-69
2022/09/18 10:04:22;;;;;;;1.25;0.60;;;;;;;-142.37;100.00;59669.53;4971189;28;20034;-69
2022/09/18 10:07:04;;;;;;;0.60;0.40;;;;;;;-142.37;100.00;59669.53;4972608;28;20031;-68
2022/09/18 10:09:35;;;;;;;2.42;1.13;;;;;;;-142.37;100.00;59669.53;4972599;28;20031;-68
2022/09/18 10:12:14;;;;;;;0.50;0.50;;;;;;;-142.37;100.00;59669.53;4972457;28;20074;-71
2022/09/18 10:14:44;;;;;;;1.15;0.60;;;;;;;-142.37;100.00;59669.53;4973102;28;20031;-67
2022/09/18 10:17:12;;;;;;;1.00;0.70;;;;;;;-142.37;100.00;59669.53;4972479;28;20491;-69
2022/09/18 10:19:41;;;;;;;2.42;0.88;;;;;;;-142.37;100.00;59669.53;4955090;28;20117;-68
2022/09/18 10:22:11;;;;;;;0.50;0.32;;;;;;;-142.37;100.00;59669.53;4971607;28;20035;-68
2022/09/18 10:24:47;;;;;;;1.48;0.60;;;;;;;-142.37;100.00;59669.53;4972369;28;20042;-69
2022/09/18 10:27:14;;;;;;;1.80;0.47;;;;;;;-142.37;100.00;59669.53;4972247;28;20027;-68
2022/09/18 10:29:40;;;;;;;0.50;0.40;;;;;;;-142.37;100.00;59669.53;4976131;28;20031;-68
2022/09/18 10:32:09;;;;;;;0.57;0.50;;;;;;;-142.37;100.00;59669.53;4976403;28;20042;-70
2022/09/18 10:34:49;;;;;;;1.80;0.80;;;;;;;-142.37;100.00;59669.53;4975750;28;20093;-68
2022/09/18 10:37:27;;;;;;;1.10;0.50;;;;;;;-142.37;100.00;59669.53;4958935;28;20125;-68
2022/09/18 10:39:56;;;;;;;0.57;0.55;;;;;;;-142.37;100.00;59669.53;4975197;28;20420;-69
2022/09/18 10:42:30;;;;;;;1.20;0.60;;;;;;;-142.37;100.00;59669.53;4976614;28;20435;-69
2022/09/18 10:45:01;;;;;;;1.52;0.50;;;;;;;-142.37;100.00;59669.53;4958964;28;20053;-68
2022/09/18 10:47:37;;;;;;;0.70;0.60;;;;;;;-142.37;100.00;59669.53;4958718;28;20039;-70
2022/09/18 10:50:05;;;;;;;0.75;0.43;;;;;;;-142.37;100.00;59669.53;4958580;28;20126;-69
2022/09/18 10:52:39;;;;;;;1.80;0.73;;;;;;;-142.37;100.00;59669.53;4975705;28;20039;-69
2022/09/18 10:55:08;;;;;;;2.33;0.57;;;;;;;-142.37;100.00;59669.53;4958319;28;20054;-70
2022/09/18 10:57:42;;;;;;;0.90;0.65;;;;;;;-142.37;100.00;59669.53;4974317;28;20069;-69
2022/09/18 11:00:11;;;;;;;0.57;0.45;;;;;;;-142.37;100.00;59669.53;4975105;28;20042;-69
2022/09/18 11:02:58;;;;;;;1.65;0.50;;;;;;;-142.37;100.00;59669.53;4975768;28;20066;-69
2022/09/18 11:05:46;;;;;;;3.33;0.75;;;;;;;-142.37;100.00;59669.53;4958319;28;20038;-69
2022/09/18 11:08:18;;;;;;;1.98;0.63;;;;;;;-142.37;100.00;59669.53;4975892;28;20034;-70
2022/09/18 11:10:49;;;;;;;2.65;1.08;;;;;;;-142.37;100.00;59669.53;4976038;28;20403;-73
2022/09/18 11:13:24;;;;;;;2.05;1.02;;;;;;;-142.37;100.00;59669.53;4975395;28;20034;-70
2022/09/18 11:16:01;;;;;;;0.68;0.55;;;;;;;-142.37;100.00;59669.53;4975928;28;20027;-70
2022/09/18 11:18:30;;;;;;;0.38;0.30;;;;;;;-142.37;100.00;59669.53;4958058;28;20415;-70
2022/09/18 11:20:59;;;;;;;1.05;0.40;;;;;;;-142.37;100.00;59669.53;4975897;28;20113;-71
2022/09/18 11:23:28;;;;;;;0.77;0.40;;;;;;;-142.37;100.00;59669.53;4958503;28;20054;-69
2022/09/18 11:26:25;;;;;;;0.60;0.30;;;;;;;-142.37;100.00;59669.53;4976014;28;20027;-69
2022/09/18 11:29:01;;;;;;;0.70;0.30;;;;;;;-142.37;100.00;59669.53;4958144;28;20039;-70